createdAt,value
2018-11-29T00:00:42.508Z,6.53
2018-11-29T00:03:11.970Z,6.00
2018-11-29T00:05:41.245Z,5.87
2018-11-29T00:08:10.060Z,6.13
2018-11-29T00:10:39.229Z,5.47
2018-11-29T00:13:08.031Z,5.87
2018-11-29T00:15:36.783Z,6.30
2018-11-29T00:18:06.026Z,6.33
2018-11-29T00:20:35.349Z,7.23
2018-11-29T00:23:04.275Z,6.87
2018-11-29T00:25:33.615Z,7.47
2018-11-29T00:28:02.344Z,6.40
2018-11-29T00:30:31.064Z,6.57
2018-11-29T00:33:00.117Z,6.40
2018-11-29T00:35:28.849Z,6.23
2018-11-29T00:37:57.887Z,5.37
2018-11-29T00:40:26.761Z,6.33
2018-11-29T00:42:55.670Z,6.47
2018-11-29T00:45:24.739Z,6.60
2018-11-29T00:47:57.069Z,5.30
2018-11-29T00:50:26.085Z,6.23
2018-11-29T00:52:54.807Z,6.87
2018-11-29T00:55:24.188Z,5.93
2018-11-29T00:57:53.510Z,5.57
2018-11-29T01:00:23.951Z,5.33
2018-11-29T01:02:52.703Z,5.47
2018-11-29T01:05:21.418Z,5.37
2018-11-29T01:07:50.208Z,5.60
2018-11-29T01:10:19.489Z,5.13
2018-11-29T01:12:48.741Z,6.37
2018-11-29T01:15:19.746Z,5.53
2018-11-29T01:17:49.396Z,5.93
2018-11-29T01:20:19.311Z,5.10
2018-11-29T01:22:48.370Z,5.53
2018-11-29T01:25:17.669Z,5.63
2018-11-29T01:27:48.371Z,5.07
2018-11-29T01:30:18.036Z,5.50
2018-11-29T01:32:46.693Z,5.43
2018-11-29T01:35:22.060Z,5.37
2018-11-29T01:37:50.868Z,5.60
2018-11-29T01:40:21.559Z,5.10
2018-11-29T01:42:57.062Z,5.20
2018-11-29T01:45:26.210Z,5.37
2018-11-29T01:47:54.940Z,5.00
2018-11-29T01:50:23.501Z,4.87
2018-11-29T01:52:52.109Z,4.77
2018-11-29T01:55:20.965Z,5.03
2018-11-29T01:57:49.830Z,4.30
2018-11-29T02:00:18.786Z,4.20
2018-11-29T02:02:50.687Z,3.90
2018-11-29T02:05:19.456Z,4.77
2018-11-29T02:07:48.145Z,4.20
2018-11-29T02:10:22.676Z,4.20
2018-11-29T02:12:51.370Z,4.40
2018-11-29T02:15:19.970Z,4.30
2018-11-29T02:17:49.035Z,4.70
2018-11-29T02:20:18.471Z,4.17
2018-11-29T02:22:47.500Z,4.70
2018-11-29T02:25:16.431Z,4.40
2018-11-29T02:27:45.135Z,4.87
2018-11-29T02:30:17.633Z,4.63
2018-11-29T02:32:46.438Z,4.27
2018-11-29T02:35:15.381Z,4.63
2018-11-29T02:37:44.275Z,4.27
2018-11-29T02:40:14.765Z,4.77
2018-11-29T02:42:43.931Z,4.20
2018-11-29T02:45:27.898Z,5.07
2018-11-29T02:47:56.395Z,4.80
2018-11-29T02:50:25.280Z,4.57
2018-11-29T02:52:53.885Z,4.50
2018-11-29T02:55:22.747Z,4.53
2018-11-29T02:57:51.406Z,4.27
2018-11-29T03:00:20.458Z,4.80
2018-11-29T03:02:49.031Z,4.57
2018-11-29T03:05:18.119Z,4.80
2018-11-29T03:07:46.866Z,4.10
2018-11-29T03:10:20.214Z,4.37
2018-11-29T03:12:48.945Z,4.43
2018-11-29T03:15:17.484Z,4.57
2018-11-29T03:17:46.744Z,4.60
2018-11-29T03:20:15.766Z,4.43
2018-11-29T03:22:44.426Z,3.80
2018-11-29T03:25:14.908Z,4.10
2018-11-29T03:27:44.074Z,3.87
2018-11-29T03:30:14.671Z,3.73
2018-11-29T03:32:43.664Z,4.30
2018-11-29T03:35:13.216Z,3.70
2018-11-29T03:37:42.038Z,3.93
2018-11-29T03:40:13.006Z,4.17
2018-11-29T03:42:41.876Z,3.97
2018-11-29T03:45:12.526Z,3.90
2018-11-29T03:47:41.370Z,3.93
2018-11-29T03:50:14.423Z,4.07
2018-11-29T03:52:43.318Z,3.53
2018-11-29T03:55:12.065Z,4.40
2018-11-29T03:57:41.008Z,4.20
2018-11-29T04:00:15.163Z,3.83
2018-11-29T04:02:44.413Z,3.83
2018-11-29T04:05:13.328Z,3.90
2018-11-29T04:07:42.155Z,3.50
2018-11-29T04:10:12.178Z,3.43
2018-11-29T04:12:41.213Z,3.33
2018-11-29T04:15:11.456Z,3.40
2018-11-29T04:17:41.098Z,3.10
2018-11-29T04:20:11.448Z,3.40
2018-11-29T04:22:40.334Z,3.40
2018-11-29T04:25:10.515Z,3.80
2018-11-29T04:27:39.209Z,3.50
2018-11-29T04:30:16.955Z,3.67
2018-11-29T04:32:45.988Z,3.10
2018-11-29T04:35:14.935Z,3.53
2018-11-29T04:37:44.151Z,3.37
2018-11-29T04:40:14.968Z,3.57
2018-11-29T04:42:43.881Z,3.27
2018-11-29T04:45:13.666Z,3.63
2018-11-29T04:47:42.452Z,3.30
2018-11-29T04:50:11.272Z,3.00
2018-11-29T04:52:40.258Z,3.40
2018-11-29T04:55:09.723Z,3.27
2018-11-29T04:57:38.901Z,3.33
2018-11-29T05:00:14.203Z,3.13
2018-11-29T05:02:42.959Z,3.47
2018-11-29T05:05:12.450Z,3.20
2018-11-29T05:07:41.661Z,3.33
2018-11-29T05:10:11.821Z,3.30
2018-11-29T05:12:40.464Z,2.90
2018-11-29T05:15:10.570Z,3.43
2018-11-29T05:17:39.478Z,3.27
2018-11-29T05:20:08.715Z,3.00
2018-11-29T05:22:37.359Z,3.20
2018-11-29T05:25:07.249Z,3.23
2018-11-29T05:27:36.308Z,3.23
2018-11-29T05:30:07.637Z,3.47
2018-11-29T05:32:36.379Z,2.87
2018-11-29T05:35:06.079Z,3.20
2018-11-29T05:37:35.691Z,2.87
2018-11-29T05:40:03.574Z,2.50
2018-11-29T05:42:32.278Z,2.67
2018-11-29T05:45:01.176Z,2.80
2018-11-29T05:47:29.743Z,2.30
2018-11-29T05:49:58.418Z,2.80
2018-11-29T05:52:27.170Z,2.70
2018-11-29T05:54:55.894Z,2.50
2018-11-29T05:57:24.568Z,2.20
2018-11-29T05:59:53.328Z,2.40
2018-11-29T06:02:22.143Z,2.90
2018-11-29T06:04:50.891Z,2.20
2018-11-29T06:07:19.632Z,2.20
2018-11-29T06:09:48.550Z,2.73
2018-11-29T06:12:17.168Z,2.43
2018-11-29T06:14:46.072Z,2.70
2018-11-29T06:17:14.580Z,2.80
2018-11-29T06:19:43.390Z,2.10
2018-11-29T06:22:12.068Z,2.53
2018-11-29T06:24:41.019Z,2.40
2018-11-29T06:27:10.145Z,2.70
2018-11-29T06:29:38.819Z,2.80
2018-11-29T06:32:07.498Z,2.73
2018-11-29T06:34:36.209Z,2.53
2018-11-29T06:37:04.983Z,3.00
2018-11-29T06:39:34.729Z,2.93
2018-11-29T06:42:02.572Z,2.50
2018-11-29T06:44:31.359Z,2.47
2018-11-29T06:47:00.429Z,2.40
2018-11-29T06:49:29.278Z,2.47
2018-11-29T06:51:57.854Z,1.93
2018-11-29T06:54:26.574Z,2.40
2018-11-29T06:56:55.385Z,2.27
2018-11-29T06:59:24.418Z,2.30
2018-11-29T07:01:53.369Z,2.43
2018-11-29T07:04:22.059Z,2.77
2018-11-29T07:06:50.969Z,3.40
2018-11-29T07:09:20.404Z,3.10
2018-11-29T07:11:48.323Z,3.90
2018-11-29T07:14:17.108Z,3.70
2018-11-29T07:16:46.104Z,3.50
2018-11-29T07:19:15.121Z,3.23
2018-11-29T07:21:53.485Z,3.00
2018-11-29T07:24:22.302Z,2.83
2018-11-29T07:26:51.148Z,3.03
2018-11-29T07:29:19.761Z,3.03
2018-11-29T07:31:48.611Z,3.20
2018-11-29T07:34:17.430Z,3.30
2018-11-29T07:36:46.269Z,3.00
2018-11-29T07:39:15.054Z,3.00
2018-11-29T07:41:43.925Z,3.10
2018-11-29T07:44:12.566Z,2.60
2018-11-29T07:46:41.330Z,2.97
2018-11-29T07:49:10.013Z,2.57
2018-11-29T07:51:38.862Z,2.83
2018-11-29T07:54:07.845Z,2.97
2018-11-29T07:56:36.733Z,2.60
2018-11-29T07:59:05.406Z,2.93
2018-11-29T08:01:34.070Z,2.47
2018-11-29T08:04:02.678Z,2.83
2018-11-29T08:06:31.899Z,2.30
2018-11-29T08:09:01.082Z,3.47
2018-11-29T08:11:29.795Z,2.53
2018-11-29T08:13:58.477Z,2.70
2018-11-29T08:16:27.271Z,3.00
2018-11-29T08:18:56.013Z,3.33
2018-11-29T08:21:24.990Z,2.73
2018-11-29T08:23:53.732Z,2.80
2018-11-29T08:26:22.718Z,2.90
2018-11-29T08:28:51.588Z,2.40
2018-11-29T08:31:20.332Z,2.70
2018-11-29T08:33:49.146Z,3.17
2018-11-29T08:36:17.765Z,5.17
2018-11-29T08:38:46.597Z,5.00
2018-11-29T08:41:15.642Z,4.87
2018-11-29T08:43:44.310Z,5.73
2018-11-29T08:46:13.187Z,5.53
2018-11-29T08:48:41.778Z,5.87
2018-11-29T08:51:10.354Z,4.87
2018-11-29T08:53:38.939Z,4.03
2018-11-29T08:56:07.743Z,3.97
2018-11-29T08:58:36.342Z,1.90
2018-11-29T09:01:11.935Z,1.90
2018-11-29T09:03:40.618Z,1.63
2018-11-29T09:06:09.189Z,3.50
2018-11-29T09:08:38.413Z,4.23
2018-11-29T09:11:07.393Z,4.00
2018-11-29T09:13:36.154Z,3.47
2018-11-29T09:16:05.222Z,3.07
2018-11-29T09:18:34.157Z,2.20
2018-11-29T09:21:02.763Z,1.67
2018-11-29T09:23:31.409Z,1.80
2018-11-29T09:26:00.288Z,1.40
2018-11-29T09:28:29.231Z,2.40
2018-11-29T09:30:57.997Z,1.77
2018-11-29T09:33:26.888Z,1.87
2018-11-29T09:35:55.693Z,1.73
2018-11-29T09:38:24.324Z,1.80
2018-11-29T09:40:53.107Z,2.00
2018-11-29T09:43:22.243Z,2.67
2018-11-29T09:45:51.032Z,1.90
2018-11-29T09:48:19.919Z,2.20
2018-11-29T09:50:48.469Z,1.50
2018-11-29T09:53:17.267Z,1.80
2018-11-29T09:55:45.945Z,2.00
2018-11-29T09:58:14.769Z,1.87
2018-11-29T10:00:43.364Z,1.40
2018-11-29T10:03:14.568Z,2.30
2018-11-29T10:05:44.619Z,1.73
2018-11-29T10:08:15.414Z,2.13
2018-11-29T10:10:44.285Z,2.30
2018-11-29T10:13:12.995Z,2.03
2018-11-29T10:15:41.645Z,3.60
2018-11-29T10:18:11.184Z,2.27
2018-11-29T10:20:40.153Z,2.00
2018-11-29T10:23:09.600Z,2.00
2018-11-29T10:25:39.781Z,2.53
2018-11-29T10:28:16.082Z,2.40
2018-11-29T10:31:01.036Z,2.00
2018-11-29T10:33:29.736Z,2.23
2018-11-29T10:35:59.230Z,2.33
2018-11-29T10:38:27.183Z,2.20
2018-11-29T10:40:56.269Z,1.90
2018-11-29T10:43:25.131Z,2.07
2018-11-29T10:45:53.767Z,2.40
2018-11-29T10:48:23.988Z,2.50
2018-11-29T10:50:52.671Z,2.10
2018-11-29T10:53:21.286Z,2.20
2018-11-29T10:55:50.568Z,2.17
2018-11-29T10:58:19.455Z,1.83
2018-11-29T11:00:53.259Z,2.27
2018-11-29T11:03:22.416Z,1.90
2018-11-29T11:05:52.191Z,2.20
2018-11-29T11:08:21.562Z,2.07
2018-11-29T11:10:50.495Z,2.00
2018-11-29T11:13:19.274Z,2.20
2018-11-29T11:15:47.889Z,2.07
2018-11-29T11:18:17.099Z,2.17
2018-11-29T11:20:45.874Z,2.20
2018-11-29T11:23:14.910Z,2.53
2018-11-29T11:25:43.589Z,1.93
2018-11-29T11:28:13.147Z,2.60
2018-11-29T11:30:43.305Z,2.60
2018-11-29T11:33:12.136Z,2.40
2018-11-29T11:35:41.035Z,2.50
2018-11-29T11:38:10.180Z,2.30
2018-11-29T11:40:39.491Z,2.10
2018-11-29T11:43:08.422Z,1.83
2018-11-29T11:45:37.224Z,2.27
2018-11-29T11:48:06.713Z,2.43
2018-11-29T11:50:35.887Z,1.80
2018-11-29T11:53:04.663Z,2.27
2018-11-29T11:55:33.449Z,2.00
2018-11-29T11:58:02.079Z,1.87
2018-11-29T12:00:31.524Z,1.80
2018-11-29T12:03:12.375Z,2.13
2018-11-29T12:05:41.352Z,2.00
2018-11-29T12:08:10.242Z,1.93
2018-11-29T12:10:40.214Z,1.70
2018-11-29T12:13:09.074Z,1.93
2018-11-29T12:15:38.532Z,1.70
2018-11-29T12:18:09.794Z,2.13
2018-11-29T12:20:38.775Z,1.83
2018-11-29T12:23:08.096Z,2.43
2018-11-29T12:25:37.179Z,2.00
2018-11-29T12:28:06.334Z,2.10
2018-11-29T12:30:40.063Z,2.17
2018-11-29T12:33:09.078Z,1.90
2018-11-29T12:35:38.065Z,2.33
2018-11-29T12:38:07.114Z,2.10
2018-11-29T12:40:36.010Z,1.90
2018-11-29T12:43:04.858Z,2.30
2018-11-29T12:45:33.829Z,2.00
2018-11-29T12:48:03.010Z,2.10
2018-11-29T12:50:31.886Z,3.10
2018-11-29T12:53:00.603Z,5.47
2018-11-29T12:55:29.444Z,2.83
2018-11-29T12:58:05.321Z,2.83
2018-11-29T13:00:27.190Z,2.30
2018-11-29T13:02:57.847Z,2.30
2018-11-29T13:05:27.204Z,2.60
2018-11-29T13:07:56.315Z,2.50
2018-11-29T13:10:26.145Z,3.30
2018-11-29T13:12:55.170Z,3.83
2018-11-29T13:15:27.376Z,3.10
2018-11-29T13:17:56.864Z,2.97
2018-11-29T13:20:25.474Z,8.50
2018-11-29T13:22:54.058Z,4.23
2018-11-29T13:25:24.593Z,2.33
2018-11-29T13:27:53.597Z,3.63
2018-11-29T13:30:23.012Z,4.70
2018-11-29T13:32:52.925Z,3.20
2018-11-29T13:35:25.009Z,5.03
2018-11-29T13:38:11.937Z,4.17
2018-11-29T13:40:41.881Z,3.93
2018-11-29T13:43:10.872Z,3.63
2018-11-29T13:45:39.633Z,2.67
2018-11-29T13:48:10.139Z,3.57
2018-11-29T13:50:39.728Z,2.90
2018-11-29T13:53:08.698Z,2.80
2018-11-29T13:55:37.501Z,3.50
2018-11-29T13:58:06.493Z,3.53
2018-11-29T14:00:35.418Z,3.73
2018-11-29T14:03:12.980Z,4.30
2018-11-29T14:05:42.133Z,6.13
2018-11-29T14:08:11.442Z,4.50
2018-11-29T14:10:41.597Z,10.53
2018-11-29T14:13:10.678Z,5.90
2018-11-29T14:15:39.811Z,3.20
2018-11-29T14:18:09.068Z,2.80
2018-11-29T14:20:37.921Z,3.30
2018-11-29T14:23:06.913Z,3.80
2018-11-29T14:25:35.751Z,2.97
2018-11-29T14:28:04.522Z,3.30
2018-11-29T14:30:33.204Z,3.40
2018-11-29T14:33:02.058Z,3.13
2018-11-29T14:35:30.722Z,3.27
2018-11-29T14:37:59.574Z,3.63
2018-11-29T14:40:30.036Z,4.00
2018-11-29T14:42:59.014Z,3.73
2018-11-29T14:45:28.214Z,4.20
2018-11-29T14:47:57.432Z,4.23
2018-11-29T14:50:34.957Z,4.23
2018-11-29T14:53:03.548Z,5.07
2018-11-29T14:55:32.368Z,4.77
2018-11-29T14:58:01.447Z,4.83
2018-11-29T15:00:30.025Z,5.08
2018-11-29T15:02:59.838Z,5.67
2018-11-29T15:05:29.853Z,4.87
2018-11-29T15:07:58.480Z,5.37
2018-11-29T15:10:27.463Z,4.20
2018-11-29T15:12:56.437Z,5.27
2018-11-29T15:15:25.322Z,4.63
2018-11-29T15:17:54.646Z,3.13
2018-11-29T15:20:35.609Z,5.77
2018-11-29T15:23:04.544Z,6.40
2018-11-29T15:25:33.349Z,4.20
2018-11-29T15:28:02.195Z,4.43
2018-11-29T15:30:30.993Z,4.47
2018-11-29T15:32:59.933Z,4.77
2018-11-29T15:35:28.852Z,4.43
2018-11-29T15:37:57.703Z,5.93
2018-11-29T15:40:26.682Z,6.37
2018-11-29T15:42:55.294Z,6.13
2018-11-29T15:45:25.305Z,6.13
2018-11-29T15:47:53.964Z,6.23
2018-11-29T15:50:22.794Z,4.70
2018-11-29T15:52:51.681Z,5.67
2018-11-29T15:55:22.356Z,5.60
2018-11-29T15:57:52.027Z,6.13
2018-11-29T16:00:28.766Z,5.77
2018-11-29T16:03:00.809Z,7.53
2018-11-29T16:05:29.893Z,8.43
2018-11-29T16:07:58.834Z,8.53
2018-11-29T16:10:28.111Z,9.47
2018-11-29T16:12:56.735Z,9.23
2018-11-29T16:15:25.927Z,9.77
2018-11-29T16:17:54.758Z,11.30
2018-11-29T16:20:26.529Z,10.30
2018-11-29T16:22:55.387Z,9.67
2018-11-29T16:25:24.588Z,11.03
2018-11-29T16:27:53.484Z,9.60
2018-11-29T16:30:33.872Z,10.83
2018-11-29T16:33:07.199Z,9.40
2018-11-29T16:35:36.198Z,9.80
2018-11-29T16:38:04.808Z,9.83
2018-11-29T16:40:33.737Z,10.27
2018-11-29T16:43:02.507Z,9.67
2018-11-29T16:45:31.143Z,9.43
2018-11-29T16:47:59.899Z,9.30
2018-11-29T16:50:28.620Z,8.37
2018-11-29T16:52:57.541Z,9.50
2018-11-29T16:55:26.278Z,9.47
2018-11-29T16:57:57.182Z,9.10
2018-11-29T17:00:26.038Z,8.37
2018-11-29T17:02:54.790Z,8.43
2018-11-29T17:05:24.079Z,8.27
2018-11-29T17:07:52.801Z,8.07
2018-11-29T17:10:22.700Z,9.47
2018-11-29T17:12:56.018Z,9.27
2018-11-29T17:15:24.792Z,7.80
2018-11-29T17:17:53.629Z,8.13
2018-11-29T17:20:22.675Z,7.63
2018-11-29T17:22:52.085Z,8.10
2018-11-29T17:25:21.125Z,7.43
2018-11-29T17:27:50.198Z,7.87
2018-11-29T17:30:22.921Z,8.10
2018-11-29T17:32:53.483Z,8.53
2018-11-29T17:35:22.353Z,8.30
2018-11-29T17:37:51.752Z,8.27
2018-11-29T17:40:21.398Z,9.40
2018-11-29T17:42:50.983Z,10.10
2018-11-29T17:45:20.943Z,8.57
2018-11-29T17:47:50.462Z,9.13
2018-11-29T17:50:24.480Z,9.40
2018-11-29T17:52:53.194Z,10.97
2018-11-29T17:55:22.138Z,10.63
2018-11-29T17:57:51.257Z,9.77
2018-11-29T18:00:22.579Z,9.43
2018-11-29T18:02:51.533Z,10.53
2018-11-29T18:05:20.790Z,8.93
2018-11-29T18:07:49.944Z,6.70
2018-11-29T18:10:23.733Z,10.10
2018-11-29T18:12:54.819Z,8.63
2018-11-29T18:15:25.466Z,9.50
2018-11-29T18:17:54.343Z,10.10
2018-11-29T18:20:23.047Z,9.00
2018-11-29T18:22:52.192Z,8.10
2018-11-29T18:25:20.988Z,7.83
2018-11-29T18:27:50.841Z,6.80
2018-11-29T18:30:21.486Z,6.67
2018-11-29T18:32:50.297Z,7.63
2018-11-29T18:35:18.987Z,7.73
2018-11-29T18:37:48.054Z,6.93
2018-11-29T18:40:19.879Z,7.63
2018-11-29T18:42:52.143Z,6.83
2018-11-29T18:45:21.171Z,6.87
2018-11-29T18:47:51.202Z,6.73
2018-11-29T18:50:20.847Z,6.97
2018-11-29T18:52:49.767Z,6.97
2018-11-29T18:55:18.845Z,8.80
2018-11-29T18:57:48.072Z,7.33
2018-11-29T19:00:22.166Z,7.53
2018-11-29T19:02:56.639Z,7.50
2018-11-29T19:05:20.222Z,6.97
2018-11-29T19:07:48.853Z,7.67
2018-11-29T19:10:18.416Z,6.67
2018-11-29T19:13:20.516Z,7.13
2018-11-29T19:15:49.723Z,5.53
2018-11-29T19:18:18.472Z,6.70
2018-11-29T19:20:47.736Z,4.03
2018-11-29T19:23:16.571Z,4.50
2018-11-29T19:25:45.571Z,4.13
2018-11-29T19:28:14.407Z,4.03
2018-11-29T19:30:43.175Z,4.37
2018-11-29T19:33:17.802Z,3.80
2018-11-29T19:35:50.665Z,3.83
2018-11-29T19:38:19.321Z,4.20
2018-11-29T19:40:48.111Z,4.47
2018-11-29T19:43:17.363Z,4.30
2018-11-29T19:45:46.189Z,4.50
2018-11-29T19:48:15.391Z,4.53
2018-11-29T19:50:44.329Z,4.57
2018-11-29T19:53:23.616Z,4.37
2018-11-29T19:55:56.161Z,4.27
2018-11-29T19:58:24.983Z,5.10
2018-11-29T20:00:53.951Z,5.60
2018-11-29T20:03:23.103Z,5.80
2018-11-29T20:08:27.027Z,5.13
2018-11-29T20:10:56.118Z,5.47
2018-11-29T20:13:25.233Z,5.53
2018-11-29T20:15:55.087Z,4.90
2018-11-29T20:18:23.783Z,5.80
2018-11-29T20:20:52.797Z,5.73
2018-11-29T20:23:22.033Z,5.67
2018-11-29T20:25:50.901Z,6.23
2018-11-29T20:28:19.557Z,5.57
2018-11-29T20:30:48.518Z,5.97
2018-11-29T20:33:17.607Z,5.57
2018-11-29T20:35:46.522Z,6.40
2018-11-29T20:38:15.468Z,5.73
2018-11-29T20:40:45.304Z,5.80
2018-11-29T20:43:14.410Z,5.50
2018-11-29T20:45:46.373Z,6.00
2018-11-29T20:48:19.087Z,6.53
2018-11-29T20:50:48.373Z,6.67
2018-11-29T20:53:22.183Z,6.30
2018-11-29T20:55:51.121Z,5.60
2018-11-29T20:58:19.912Z,5.70
2018-11-29T21:00:48.791Z,5.73
2018-11-29T21:03:17.577Z,5.73
2018-11-29T21:05:46.541Z,5.63
2018-11-29T21:08:15.257Z,5.20
2018-11-29T21:10:44.226Z,5.40
2018-11-29T21:13:13.022Z,5.90
2018-11-29T21:15:42.672Z,5.57
2018-11-29T21:18:12.702Z,5.17
2018-11-29T21:20:42.321Z,5.77
2018-11-29T21:23:15.474Z,5.53
2018-11-29T21:25:44.961Z,5.80
2018-11-29T21:28:14.076Z,5.40
2018-11-29T21:30:42.634Z,5.53
2018-11-29T21:33:12.086Z,6.90
2018-11-29T21:35:41.136Z,6.20
2018-11-29T21:38:14.317Z,6.70
2018-11-29T21:40:53.805Z,6.87
2018-11-29T21:43:23.025Z,7.03
2018-11-29T21:45:51.687Z,7.80
2018-11-29T21:48:20.482Z,6.43
2018-11-29T21:50:49.310Z,5.83
2018-11-29T21:53:18.104Z,6.80
2018-11-29T21:55:47.242Z,6.90
2018-11-29T21:58:15.954Z,7.03
2018-11-29T22:00:44.690Z,6.80
2018-11-29T22:03:13.534Z,6.90
2018-11-29T22:05:42.550Z,6.97
2018-11-29T22:08:11.425Z,7.33
2018-11-29T22:10:40.227Z,5.93
2018-11-29T22:13:09.501Z,6.43
2018-11-29T22:15:38.506Z,6.73
2018-11-29T22:18:24.884Z,7.53
2018-11-29T22:20:55.670Z,6.80
2018-11-29T22:23:24.308Z,6.63
2018-11-29T22:25:53.755Z,6.60
2018-11-29T22:28:22.540Z,6.37
2018-11-29T22:30:51.599Z,7.13
2018-11-29T22:33:20.576Z,7.70
2018-11-29T22:35:49.355Z,7.43
2018-11-29T22:38:17.979Z,7.33
2018-11-29T22:40:47.115Z,8.20
2018-11-29T22:43:15.946Z,6.13
2018-11-29T22:45:44.729Z,7.77
2018-11-29T22:48:13.825Z,8.03
2018-11-29T22:50:42.460Z,6.83
2018-11-29T22:53:11.039Z,7.27
2018-11-29T22:55:39.791Z,6.10
2018-11-29T22:58:08.923Z,6.67
2018-11-29T23:00:43.971Z,6.50
2018-11-29T23:03:13.214Z,6.63
2018-11-29T23:05:42.255Z,6.53
2018-11-29T23:08:11.561Z,6.77
2018-11-29T23:10:40.384Z,6.40
2018-11-29T23:13:09.232Z,5.80
2018-11-29T23:15:37.836Z,6.83
2018-11-29T23:18:07.286Z,6.70
2018-11-29T23:20:36.382Z,6.50
2018-11-29T23:23:05.491Z,6.30
2018-11-29T23:25:34.602Z,6.37
2018-11-29T23:28:03.880Z,5.90
2018-11-29T23:30:32.621Z,5.60
2018-11-29T23:33:01.446Z,5.80
2018-11-29T23:35:30.117Z,5.20
2018-11-29T23:37:58.900Z,5.33
2018-11-29T23:40:27.761Z,6.03
2018-11-29T23:42:56.342Z,5.70
2018-11-29T23:45:25.272Z,5.50
2018-11-29T23:47:54.144Z,5.50
2018-11-29T23:50:23.102Z,5.00
2018-11-29T23:52:51.666Z,5.40
2018-11-29T23:55:21.492Z,5.27
2018-11-29T23:57:50.265Z,5.73
